createdAt,value
2023-01-19T00:00:22.621Z,0
2023-01-19T00:01:22.575Z,0
2023-01-19T00:02:22.726Z,0
2023-01-19T00:03:22.587Z,0
2023-01-19T00:04:22.576Z,0
2023-01-19T00:05:22.599Z,0
2023-01-19T00:06:22.625Z,0
2023-01-19T00:07:22.579Z,0
2023-01-19T00:08:22.632Z,0
2023-01-19T00:09:22.609Z,0
2023-01-19T00:10:22.571Z,0
2023-01-19T00:11:22.570Z,0
2023-01-19T00:12:22.582Z,0
2023-01-19T00:13:22.559Z,0
2023-01-19T00:14:22.601Z,0
2023-01-19T00:15:22.574Z,0
2023-01-19T00:16:22.664Z,0
2023-01-19T00:17:22.582Z,0
2023-01-19T00:18:22.556Z,0
2023-01-19T00:19:22.570Z,0
2023-01-19T00:20:22.595Z,0
2023-01-19T00:21:22.625Z,0
2023-01-19T00:22:22.565Z,0
2023-01-19T00:23:22.566Z,0
2023-01-19T00:24:22.561Z,0
2023-01-19T00:25:22.579Z,0
2023-01-19T00:26:22.633Z,0
2023-01-19T00:27:22.564Z,0
2023-01-19T00:28:22.565Z,0
2023-01-19T00:29:22.560Z,0
2023-01-19T00:30:22.606Z,0
2023-01-19T00:31:22.664Z,0
2023-01-19T00:32:22.581Z,0
2023-01-19T00:33:22.569Z,0
2023-01-19T00:34:22.562Z,0
2023-01-19T00:35:22.619Z,0
2023-01-19T00:36:22.574Z,0
2023-01-19T00:37:22.574Z,0
2023-01-19T00:38:22.562Z,0
2023-01-19T00:39:22.576Z,0
2023-01-19T00:40:22.576Z,0
2023-01-19T00:41:22.591Z,0
2023-01-19T00:42:22.580Z,0
2023-01-19T00:43:22.573Z,0
2023-01-19T00:44:22.574Z,0
2023-01-19T00:45:22.600Z,0
2023-01-19T00:46:22.576Z,0
2023-01-19T00:47:22.598Z,0
2023-01-19T00:48:22.585Z,0
2023-01-19T00:49:22.579Z,0
2023-01-19T00:50:22.587Z,0
2023-01-19T00:51:22.571Z,0
2023-01-19T00:52:22.583Z,0
2023-01-19T00:53:22.591Z,0
2023-01-19T00:54:22.577Z,0
2023-01-19T00:55:22.591Z,0
2023-01-19T00:56:22.579Z,0
2023-01-19T00:57:22.593Z,0
2023-01-19T00:58:22.572Z,0
2023-01-19T00:59:22.567Z,0
2023-01-19T01:00:22.613Z,0
2023-01-19T01:01:22.718Z,0
2023-01-19T01:02:22.829Z,0
2023-01-19T01:03:22.625Z,0
2023-01-19T01:04:22.578Z,0
2023-01-19T01:05:22.613Z,0
2023-01-19T01:06:22.581Z,0
2023-01-19T01:07:22.573Z,0
2023-01-19T01:08:22.578Z,0
2023-01-19T01:09:22.582Z,0
2023-01-19T01:10:22.587Z,0
2023-01-19T01:11:22.580Z,0
2023-01-19T01:12:22.572Z,0
2023-01-19T01:13:26.077Z,0
2023-01-19T01:14:22.578Z,0
2023-01-19T01:15:22.588Z,0
2023-01-19T01:16:22.622Z,0
2023-01-19T01:17:22.598Z,0
2023-01-19T01:18:22.579Z,0
2023-01-19T01:19:22.579Z,0
2023-01-19T01:20:22.593Z,0
2023-01-19T01:21:22.584Z,0
2023-01-19T01:22:22.573Z,0
2023-01-19T01:23:22.599Z,0
2023-01-19T01:24:22.588Z,0
2023-01-19T01:25:22.739Z,0
2023-01-19T01:26:22.573Z,0
2023-01-19T01:27:22.561Z,0
2023-01-19T01:28:22.562Z,0
2023-01-19T01:29:22.555Z,0
2023-01-19T01:30:22.593Z,0
2023-01-19T01:31:22.651Z,0
2023-01-19T01:32:22.572Z,0
2023-01-19T01:33:40.653Z,0
2023-01-19T01:34:22.557Z,0
2023-01-19T01:35:22.578Z,0
2023-01-19T01:36:22.561Z,0
2023-01-19T01:37:22.569Z,0
2023-01-19T01:38:22.555Z,0
2023-01-19T01:39:22.561Z,0
2023-01-19T01:40:22.575Z,0
2023-01-19T01:41:25.505Z,0
2023-01-19T01:42:22.561Z,0
2023-01-19T01:43:22.562Z,0
2023-01-19T01:44:22.556Z,0
2023-01-19T01:45:22.575Z,0
2023-01-19T01:46:22.560Z,0
2023-01-19T01:47:22.607Z,0
2023-01-19T01:48:22.563Z,0
2023-01-19T01:49:22.567Z,0
2023-01-19T01:50:22.624Z,0
2023-01-19T01:51:22.557Z,0
2023-01-19T01:52:22.565Z,0
2023-01-19T01:53:22.622Z,0
2023-01-19T01:54:22.591Z,0
2023-01-19T01:55:22.599Z,0
2023-01-19T01:56:22.583Z,0
2023-01-19T01:57:22.582Z,0
2023-01-19T01:58:22.589Z,0
2023-01-19T01:59:22.579Z,0
2023-01-19T02:00:22.587Z,0
2023-01-19T02:01:22.677Z,0
2023-01-19T02:02:22.611Z,0
2023-01-19T02:03:22.646Z,0
2023-01-19T02:04:22.575Z,0
2023-01-19T02:05:22.593Z,0
2023-01-19T02:06:22.580Z,0
2023-01-19T02:07:22.573Z,0
2023-01-19T02:08:22.574Z,0
2023-01-19T02:09:22.586Z,0
2023-01-19T02:10:22.600Z,0
2023-01-19T02:11:22.570Z,0
2023-01-19T02:12:22.673Z,0
2023-01-19T02:13:22.643Z,0
2023-01-19T02:14:22.580Z,0
2023-01-19T02:15:22.595Z,0
2023-01-19T02:16:22.645Z,0
2023-01-19T02:17:22.589Z,0
2023-01-19T02:18:22.590Z,0
2023-01-19T02:19:22.571Z,0
2023-01-19T02:20:22.589Z,0
2023-01-19T02:21:22.582Z,0
2023-01-19T02:22:22.598Z,0
2023-01-19T02:23:22.585Z,0
2023-01-19T02:24:22.580Z,0
2023-01-19T02:25:22.610Z,0
2023-01-19T02:26:22.577Z,0
2023-01-19T02:27:22.569Z,0
2023-01-19T02:28:22.575Z,0
2023-01-19T02:29:22.588Z,0
2023-01-19T02:30:22.769Z,0
2023-01-19T02:31:22.572Z,0
2023-01-19T02:32:22.589Z,0
2023-01-19T02:33:22.583Z,0
2023-01-19T02:34:22.578Z,0
2023-01-19T02:35:22.809Z,0
2023-01-19T02:36:22.562Z,0
2023-01-19T02:37:22.570Z,0
2023-01-19T02:38:22.571Z,0
2023-01-19T02:39:22.558Z,0
2023-01-19T02:40:22.582Z,0
2023-01-19T02:41:22.561Z,0
2023-01-19T02:42:22.567Z,0
2023-01-19T02:43:22.558Z,0
2023-01-19T02:44:22.555Z,0
2023-01-19T02:45:22.586Z,0
2023-01-19T02:46:22.621Z,0
2023-01-19T02:47:22.568Z,0
2023-01-19T02:48:22.559Z,0
2023-01-19T02:49:22.568Z,0
2023-01-19T02:50:22.577Z,0
2023-01-19T02:51:22.562Z,0
2023-01-19T02:52:22.569Z,0
2023-01-19T02:53:22.567Z,0
2023-01-19T02:54:22.563Z,0
2023-01-19T02:55:22.667Z,0
2023-01-19T02:56:22.559Z,0
2023-01-19T02:57:22.557Z,0
2023-01-19T02:58:22.582Z,0
2023-01-19T02:59:22.563Z,0
2023-01-19T03:00:22.582Z,0
2023-01-19T03:01:22.760Z,0
2023-01-19T03:02:22.715Z,0
2023-01-19T03:03:22.579Z,0
2023-01-19T03:04:22.587Z,0
2023-01-19T03:05:22.613Z,0
2023-01-19T03:06:22.573Z,0
2023-01-19T03:07:22.570Z,0
2023-01-19T03:08:22.573Z,0
2023-01-19T03:09:22.579Z,0
2023-01-19T03:10:22.594Z,0
2023-01-19T03:11:22.568Z,0
2023-01-19T03:12:22.578Z,0
2023-01-19T03:13:22.583Z,0
2023-01-19T03:14:22.581Z,0
2023-01-19T03:15:22.586Z,0
2023-01-19T03:16:22.967Z,0
2023-01-19T03:17:22.608Z,0
2023-01-19T03:18:22.585Z,0
2023-01-19T03:19:22.575Z,0
2023-01-19T03:20:22.590Z,0
2023-01-19T03:21:22.585Z,0
2023-01-19T03:22:22.585Z,0
2023-01-19T03:23:22.571Z,0
2023-01-19T03:24:22.579Z,0
2023-01-19T03:25:22.593Z,0
2023-01-19T03:26:22.569Z,0
2023-01-19T03:27:22.568Z,0
2023-01-19T03:28:22.577Z,0
2023-01-19T03:29:22.572Z,0
2023-01-19T03:30:22.565Z,0
2023-01-19T03:31:22.574Z,0
2023-01-19T03:32:22.615Z,0
2023-01-19T03:33:22.571Z,0
2023-01-19T03:34:22.572Z,0
2023-01-19T03:35:22.588Z,0
2023-01-19T03:36:22.580Z,0
2023-01-19T03:37:22.575Z,0
2023-01-19T03:38:22.621Z,0
2023-01-19T03:39:22.568Z,0
2023-01-19T03:40:22.585Z,0
2023-01-19T03:41:22.576Z,0
2023-01-19T03:42:22.569Z,0
2023-01-19T03:43:22.576Z,0
2023-01-19T03:44:22.574Z,0
2023-01-19T03:45:22.595Z,0
2023-01-19T03:46:22.637Z,0
2023-01-19T03:47:22.575Z,0
2023-01-19T03:48:22.573Z,0
2023-01-19T03:49:22.564Z,0
2023-01-19T03:50:22.568Z,0
2023-01-19T03:51:22.583Z,0
2023-01-19T03:52:22.561Z,0
2023-01-19T03:53:22.573Z,0
2023-01-19T03:54:22.555Z,0
2023-01-19T03:55:22.650Z,0
2023-01-19T03:56:22.570Z,0
2023-01-19T03:57:22.560Z,0
2023-01-19T03:58:22.563Z,0
2023-01-19T03:59:22.557Z,0
2023-01-19T04:00:22.591Z,0
2023-01-19T04:01:22.916Z,0
2023-01-19T04:02:22.622Z,0
2023-01-19T04:03:22.558Z,0
2023-01-19T04:04:22.562Z,0
2023-01-19T04:05:22.574Z,0
2023-01-19T04:06:22.566Z,0
2023-01-19T04:07:22.561Z,0
2023-01-19T04:08:22.558Z,0
2023-01-19T04:09:22.591Z,0
2023-01-19T04:10:22.621Z,0
2023-01-19T04:11:22.556Z,0
2023-01-19T04:12:22.553Z,0
2023-01-19T04:13:22.587Z,0
2023-01-19T04:14:22.574Z,0
2023-01-19T04:15:22.585Z,0
2023-01-19T04:16:22.605Z,0
2023-01-19T04:17:22.582Z,0
2023-01-19T04:18:22.575Z,0
2023-01-19T04:19:22.573Z,0
2023-01-19T04:20:22.583Z,0
2023-01-19T04:21:22.579Z,0
2023-01-19T04:22:22.567Z,0
2023-01-19T04:23:22.574Z,0
2023-01-19T04:24:22.571Z,0
2023-01-19T04:25:22.596Z,0
2023-01-19T04:26:22.577Z,0
2023-01-19T04:27:22.575Z,0
2023-01-19T04:28:22.576Z,0
2023-01-19T04:29:22.577Z,0
2023-01-19T04:30:22.703Z,0
2023-01-19T04:31:22.692Z,0
2023-01-19T04:32:22.625Z,0
2023-01-19T04:33:22.577Z,0
2023-01-19T04:34:22.577Z,0
2023-01-19T04:35:22.586Z,0
2023-01-19T04:36:22.570Z,0
2023-01-19T04:37:22.576Z,0
2023-01-19T04:38:22.578Z,0
2023-01-19T04:39:22.571Z,0
2023-01-19T04:40:22.592Z,0
2023-01-19T04:41:22.581Z,0
2023-01-19T04:42:22.571Z,0
2023-01-19T04:43:22.588Z,0
2023-01-19T04:44:22.567Z,0
2023-01-19T04:45:22.587Z,0
2023-01-19T04:46:22.628Z,0
2023-01-19T04:47:22.581Z,0
2023-01-19T04:48:22.579Z,0
2023-01-19T04:49:22.578Z,0
2023-01-19T04:50:22.590Z,0
2023-01-19T04:51:22.594Z,0
2023-01-19T04:52:22.579Z,0
2023-01-19T04:53:22.580Z,0
2023-01-19T04:54:22.610Z,0
2023-01-19T04:55:22.600Z,0
2023-01-19T04:56:22.574Z,0
2023-01-19T04:57:22.574Z,0
2023-01-19T04:58:22.592Z,0
2023-01-19T04:59:22.570Z,0
2023-01-19T05:00:22.576Z,0
2023-01-19T05:01:22.706Z,0
2023-01-19T05:02:22.582Z,0
2023-01-19T05:03:24.369Z,0
2023-01-19T05:04:22.555Z,0
2023-01-19T05:05:22.567Z,0
2023-01-19T05:06:22.555Z,0
2023-01-19T05:07:22.562Z,0
2023-01-19T05:08:22.563Z,0
2023-01-19T05:09:22.552Z,0
2023-01-19T05:10:22.582Z,0
2023-01-19T05:11:22.561Z,0
2023-01-19T05:12:22.556Z,0
2023-01-19T05:13:22.559Z,0
2023-01-19T05:14:22.553Z,0
2023-01-19T05:15:22.585Z,0
2023-01-19T05:16:22.609Z,0
2023-01-19T05:17:22.574Z,0
2023-01-19T05:18:22.556Z,0
2023-01-19T05:19:22.635Z,0
2023-01-19T05:20:22.604Z,0
2023-01-19T05:21:22.556Z,0
2023-01-19T05:22:22.559Z,0
2023-01-19T05:23:22.553Z,0
2023-01-19T05:24:22.571Z,0
2023-01-19T05:25:22.573Z,0
2023-01-19T05:26:22.569Z,0
2023-01-19T05:27:22.586Z,0
2023-01-19T05:28:22.574Z,0
2023-01-19T05:29:22.575Z,0
2023-01-19T05:30:22.577Z,0
2023-01-19T05:31:22.680Z,0
2023-01-19T05:32:22.589Z,0
2023-01-19T05:33:22.581Z,0
2023-01-19T05:34:22.592Z,0
2023-01-19T05:35:35.301Z,0
2023-01-19T05:36:22.577Z,0
2023-01-19T05:37:22.569Z,0
2023-01-19T05:38:34.285Z,0
2023-01-19T05:39:22.578Z,0
2023-01-19T05:40:22.576Z,0
2023-01-19T05:41:22.569Z,0
2023-01-19T05:42:22.572Z,0
2023-01-19T05:43:22.579Z,0
2023-01-19T05:44:22.646Z,0
2023-01-19T05:45:22.593Z,0
2023-01-19T05:46:22.587Z,0
2023-01-19T05:47:22.653Z,0
2023-01-19T05:48:22.582Z,0
2023-01-19T05:49:22.572Z,0
2023-01-19T05:50:22.713Z,0
2023-01-19T05:51:22.572Z,0
2023-01-19T05:52:22.578Z,0
2023-01-19T05:53:22.573Z,0
2023-01-19T05:54:22.570Z,0
2023-01-19T05:55:22.598Z,0
2023-01-19T05:56:22.582Z,0
2023-01-19T05:57:22.580Z,0
2023-01-19T05:58:22.569Z,0
2023-01-19T05:59:22.575Z,0
2023-01-19T06:00:22.587Z,0
2023-01-19T06:01:22.663Z,0
2023-01-19T06:02:22.586Z,0
2023-01-19T06:03:22.610Z,0
2023-01-19T06:04:22.576Z,0
2023-01-19T06:05:22.592Z,0
2023-01-19T06:06:22.576Z,0
2023-01-19T06:07:24.325Z,0
2023-01-19T06:08:22.575Z,0
2023-01-19T06:09:22.574Z,0
2023-01-19T06:10:22.582Z,0
2023-01-19T06:11:22.574Z,0
2023-01-19T06:12:22.573Z,0
2023-01-19T06:13:22.567Z,0
2023-01-19T06:14:22.580Z,0
2023-01-19T06:15:22.579Z,0
2023-01-19T06:16:22.618Z,0
2023-01-19T06:17:22.575Z,0
2023-01-19T06:18:22.562Z,0
2023-01-19T06:19:22.554Z,0
2023-01-19T06:20:22.581Z,0
2023-01-19T06:21:22.551Z,0
2023-01-19T06:22:22.560Z,0
2023-01-19T06:23:22.579Z,0
2023-01-19T06:24:22.553Z,0
2023-01-19T06:25:22.569Z,0
2023-01-19T06:26:22.559Z,0
2023-01-19T06:27:22.561Z,0
2023-01-19T06:28:22.561Z,0
2023-01-19T06:29:22.553Z,0
2023-01-19T06:30:22.597Z,0
2023-01-19T06:31:22.741Z,0
2023-01-19T06:32:22.574Z,0
2023-01-19T06:33:22.604Z,0
2023-01-19T06:34:22.562Z,0
2023-01-19T06:35:22.579Z,0
2023-01-19T06:36:22.580Z,0
2023-01-19T06:37:22.560Z,0
2023-01-19T06:38:22.564Z,0
2023-01-19T06:39:22.633Z,0.01
2023-01-19T06:40:22.593Z,0.01
2023-01-19T06:41:22.577Z,0.01
2023-01-19T06:42:22.577Z,0.01
2023-01-19T06:43:22.571Z,0.01
2023-01-19T06:44:22.581Z,0.01
2023-01-19T06:45:22.595Z,0.02
2023-01-19T06:46:22.578Z,0.02
2023-01-19T06:47:22.608Z,0.02
2023-01-19T06:48:22.573Z,0.02
2023-01-19T06:49:22.579Z,0.03
2023-01-19T06:50:22.593Z,0.03
2023-01-19T06:51:22.580Z,0.03
2023-01-19T06:52:22.572Z,0.03
2023-01-19T06:53:22.567Z,0.04
2023-01-19T06:54:22.665Z,0.04
2023-01-19T06:55:22.588Z,0.04
2023-01-19T06:56:22.578Z,0.05
2023-01-19T06:57:22.572Z,0.05
2023-01-19T06:58:22.575Z,0.06
2023-01-19T06:59:22.556Z,0.06
2023-01-19T07:00:22.594Z,0.06
2023-01-19T07:01:22.717Z,0.07
2023-01-19T07:02:26.896Z,0.08
2023-01-19T07:03:22.693Z,0.08
2023-01-19T07:04:22.647Z,0.09
2023-01-19T07:05:22.588Z,0.09
2023-01-19T07:06:22.573Z,0.1
2023-01-19T07:07:22.609Z,0.11
2023-01-19T07:08:22.572Z,0.11
2023-01-19T07:09:22.580Z,0.12
2023-01-19T07:10:22.585Z,0.12
2023-01-19T07:11:32.312Z,0.14
2023-01-19T07:12:22.577Z,0.14
2023-01-19T07:13:22.569Z,0.15
2023-01-19T07:14:22.572Z,0.16
2023-01-19T07:15:22.638Z,0.17
2023-01-19T07:16:22.763Z,0.18
2023-01-19T07:17:22.593Z,0.18
2023-01-19T07:18:22.585Z,0.19
2023-01-19T07:19:22.576Z,0.2
2023-01-19T07:20:22.584Z,0.2
2023-01-19T07:21:22.575Z,0.21
2023-01-19T07:22:22.586Z,0.22
2023-01-19T07:23:22.575Z,0.23
2023-01-19T07:24:22.559Z,0.24
2023-01-19T07:25:22.579Z,0.24
2023-01-19T07:26:22.555Z,0.26
2023-01-19T07:27:22.557Z,0.26
2023-01-19T07:28:22.557Z,0.27
2023-01-19T07:29:22.558Z,0.27
2023-01-19T07:30:22.579Z,0.29
2023-01-19T07:31:22.763Z,0.3
2023-01-19T07:32:22.577Z,0.31
2023-01-19T07:33:22.555Z,0.32
2023-01-19T07:34:22.562Z,0.32
2023-01-19T07:35:22.691Z,0.33
2023-01-19T07:36:22.554Z,0.34
2023-01-19T07:37:22.574Z,0.36
2023-01-19T07:38:22.563Z,0.36
2023-01-19T07:39:22.570Z,0.38
2023-01-19T07:40:24.001Z,0.4
2023-01-19T07:41:22.558Z,0.4
2023-01-19T07:42:22.558Z,0.45
2023-01-19T07:43:22.559Z,0.49
2023-01-19T07:44:22.560Z,0.52
2023-01-19T07:45:22.577Z,0.53
2023-01-19T07:46:22.684Z,0.63
2023-01-19T07:47:22.582Z,0.78
2023-01-19T07:48:22.564Z,0.95
2023-01-19T07:49:22.556Z,1.09
2023-01-19T07:50:22.598Z,1.24
2023-01-19T07:51:22.555Z,1.26
2023-01-19T07:52:22.578Z,1.2
2023-01-19T07:53:22.563Z,1.25
2023-01-19T07:54:22.566Z,1.37
2023-01-19T07:55:22.585Z,1.37
2023-01-19T07:56:22.580Z,1.32
2023-01-19T07:57:22.585Z,1.34
2023-01-19T07:58:22.566Z,1.46
2023-01-19T07:59:22.562Z,1.49
2023-01-19T08:00:27.570Z,1.48
2023-01-19T08:01:22.698Z,1.62
2023-01-19T08:02:22.657Z,1.68
2023-01-19T08:03:27.582Z,1.62
2023-01-19T08:04:22.667Z,1.68
2023-01-19T08:05:22.571Z,1.72
2023-01-19T08:06:22.563Z,1.62
2023-01-19T08:07:22.559Z,1.73
2023-01-19T08:08:22.576Z,1.73
2023-01-19T08:09:22.578Z,1.83
2023-01-19T08:10:22.606Z,1.83
2023-01-19T08:11:22.577Z,1.94
2023-01-19T08:12:22.577Z,1.81
2023-01-19T08:13:22.580Z,1.77
2023-01-19T08:14:22.586Z,1.64
2023-01-19T08:15:22.767Z,1.52
2023-01-19T08:16:22.572Z,1.57
2023-01-19T08:17:22.591Z,1.7
2023-01-19T08:18:22.578Z,1.92
2023-01-19T08:19:22.570Z,2.02
2023-01-19T08:20:22.603Z,2.02
2023-01-19T08:21:22.576Z,1.95
2023-01-19T08:22:22.579Z,1.95
2023-01-19T08:23:22.584Z,1.97
2023-01-19T08:24:22.657Z,1.96
2023-01-19T08:25:22.582Z,1.89
2023-01-19T08:26:22.586Z,1.89
2023-01-19T08:27:22.588Z,1.98
2023-01-19T08:28:22.577Z,1.95
2023-01-19T08:29:22.576Z,1.96
2023-01-19T08:30:22.590Z,1.96
2023-01-19T08:31:24.811Z,2.15
2023-01-19T08:32:22.667Z,2.43
2023-01-19T08:33:22.582Z,2.71
2023-01-19T08:34:22.576Z,2.63
2023-01-19T08:35:22.620Z,2.76
2023-01-19T08:36:22.575Z,2.9
2023-01-19T08:37:22.565Z,3
2023-01-19T08:38:22.580Z,2.78
2023-01-19T08:39:22.580Z,2.68
2023-01-19T08:40:22.696Z,2.93
2023-01-19T08:41:22.561Z,3.1
2023-01-19T08:42:22.553Z,3.56
2023-01-19T08:43:22.557Z,3.54
2023-01-19T08:44:22.559Z,2.84
2023-01-19T08:45:22.591Z,2.88
2023-01-19T08:46:22.616Z,2.97
2023-01-19T08:47:22.609Z,2.89
2023-01-19T08:48:22.573Z,2.92
2023-01-19T08:49:22.555Z,2.92
2023-01-19T08:50:22.616Z,3.71
2023-01-19T08:51:22.584Z,3.4
2023-01-19T08:52:22.560Z,3.53
2023-01-19T08:53:22.557Z,3.65
2023-01-19T08:54:22.560Z,3.53
2023-01-19T08:55:22.569Z,3.49
2023-01-19T08:56:22.606Z,3.65
2023-01-19T08:57:22.577Z,3.74
2023-01-19T08:58:22.558Z,3.52
2023-01-19T08:59:22.559Z,3.78
2023-01-19T09:00:22.613Z,4.2
2023-01-19T09:01:22.747Z,3.99
2023-01-19T09:02:22.726Z,3.63
2023-01-19T09:03:22.793Z,3.99
2023-01-19T09:04:22.555Z,4.19
2023-01-19T09:05:22.575Z,4.02
2023-01-19T09:06:22.554Z,4.36
2023-01-19T09:07:22.558Z,4.99
2023-01-19T09:08:30.352Z,4.99
2023-01-19T09:09:29.128Z,3.97
2023-01-19T09:10:29.144Z,4.55
2023-01-19T09:11:29.104Z,5.27
2023-01-19T09:12:29.098Z,5.16
2023-01-19T09:13:29.100Z,4.69
2023-01-19T09:14:29.104Z,4.86
2023-01-19T09:15:29.110Z,5.14
2023-01-19T09:16:29.091Z,5.22
2023-01-19T09:17:29.098Z,5.22
2023-01-19T09:18:29.091Z,4.97
2023-01-19T09:19:29.085Z,4.92
2023-01-19T09:20:29.120Z,5.23
2023-01-19T09:21:29.095Z,5.18
2023-01-19T09:22:29.088Z,4.97
2023-01-19T09:23:29.103Z,4.93
2023-01-19T09:24:29.081Z,5.21
2023-01-19T09:25:29.132Z,5.45
2023-01-19T09:26:29.603Z,5.19
2023-01-19T09:27:29.093Z,4.79
2023-01-19T09:28:29.066Z,4.62
2023-01-19T09:29:29.065Z,4.61
2023-01-19T09:30:29.095Z,4.58
2023-01-19T09:31:29.223Z,4.17
2023-01-19T09:32:29.109Z,4.1
2023-01-19T09:33:29.096Z,4.67
2023-01-19T09:34:29.076Z,5.36
2023-01-19T09:35:29.100Z,5.5
2023-01-19T09:36:29.062Z,5.44
2023-01-19T09:37:29.062Z,5.52
2023-01-19T09:38:29.181Z,5.25
2023-01-19T09:39:29.131Z,4.71
2023-01-19T09:40:29.118Z,4.22
2023-01-19T09:41:29.071Z,4.11
2023-01-19T09:42:29.090Z,4.59
2023-01-19T09:43:29.070Z,5.18
2023-01-19T09:44:29.063Z,5.01
2023-01-19T09:45:29.079Z,5.37
2023-01-19T09:46:29.083Z,4.87
2023-01-19T09:47:29.090Z,5.22
2023-01-19T09:48:29.072Z,5.57
2023-01-19T09:49:29.060Z,5.55
2023-01-19T09:50:29.107Z,5.55
2023-01-19T09:51:29.086Z,5.07
2023-01-19T09:52:29.066Z,4.9
2023-01-19T09:53:29.073Z,4.92
2023-01-19T09:54:29.085Z,5.39
2023-01-19T09:55:29.103Z,6
2023-01-19T09:56:29.084Z,6.12
2023-01-19T09:57:29.078Z,6.07
2023-01-19T09:58:29.088Z,6.12
2023-01-19T09:59:29.081Z,5.72
2023-01-19T10:00:29.165Z,5.27
2023-01-19T10:01:29.264Z,5.27
2023-01-19T10:02:29.876Z,5.7
2023-01-19T10:03:29.157Z,6.06
2023-01-19T10:04:29.113Z,6.49
2023-01-19T10:05:29.105Z,6.57
2023-01-19T10:06:29.149Z,6.61
2023-01-19T10:07:29.151Z,6.21
2023-01-19T10:08:29.087Z,6.21
2023-01-19T10:09:29.083Z,5.45
2023-01-19T10:10:29.135Z,5.45
2023-01-19T10:11:34.482Z,6.99
2023-01-19T10:12:29.079Z,7.34
2023-01-19T10:13:29.165Z,6.71
2023-01-19T10:14:29.082Z,6.02
2023-01-19T10:15:29.094Z,5.96
2023-01-19T10:16:29.133Z,6.27
2023-01-19T10:17:29.087Z,6.63
2023-01-19T10:18:29.078Z,6.99
2023-01-19T10:19:29.094Z,6.94
2023-01-19T10:20:29.078Z,6.94
2023-01-19T10:21:29.087Z,6.16
2023-01-19T10:22:29.087Z,6.61
2023-01-19T10:23:29.093Z,7.69
2023-01-19T10:24:29.103Z,8.07
2023-01-19T10:25:29.108Z,7.39
2023-01-19T10:26:29.089Z,6.15
2023-01-19T10:27:29.092Z,5.8
2023-01-19T10:28:29.076Z,6.35
2023-01-19T10:29:29.091Z,6.6
2023-01-19T10:30:29.128Z,6.76
2023-01-19T10:31:29.217Z,7.25
2023-01-19T10:32:29.094Z,7.6
2023-01-19T10:33:29.128Z,7.87
2023-01-19T10:34:29.086Z,7.54
2023-01-19T10:35:29.099Z,6.88
2023-01-19T10:36:29.120Z,6.35
2023-01-19T10:37:29.078Z,5.98
2023-01-19T10:38:29.054Z,6.3
2023-01-19T10:39:29.085Z,7.26
2023-01-19T10:40:29.107Z,7.45
2023-01-19T10:41:29.079Z,7.43
2023-01-19T10:42:29.088Z,7.13
2023-01-19T10:43:29.063Z,6.83
2023-01-19T10:44:29.164Z,7.09
2023-01-19T10:45:29.147Z,7.72
2023-01-19T10:46:29.066Z,8.32
2023-01-19T10:47:29.102Z,8.05
2023-01-19T10:48:29.101Z,7.68
2023-01-19T10:49:29.061Z,6.97
2023-01-19T10:50:29.164Z,6.47
2023-01-19T10:51:29.111Z,7.5
2023-01-19T10:52:29.100Z,9.15
2023-01-19T10:53:29.066Z,9.76
2023-01-19T10:54:29.097Z,9.19
2023-01-19T10:55:29.146Z,8.02
2023-01-19T10:56:29.134Z,7.2
2023-01-19T10:57:29.064Z,7.45
2023-01-19T10:58:29.120Z,7.69
2023-01-19T10:59:29.073Z,7.54
2023-01-19T11:00:29.107Z,5.81
2023-01-19T11:01:29.190Z,5.44
2023-01-19T11:02:29.453Z,4.46
2023-01-19T11:03:29.071Z,4.7
2023-01-19T11:04:29.070Z,4.67
2023-01-19T11:05:29.099Z,4.49
2023-01-19T11:06:29.097Z,4.44
2023-01-19T11:07:29.062Z,4.59
2023-01-19T11:08:29.079Z,4.59
2023-01-19T11:09:29.074Z,5.3
2023-01-19T11:10:29.068Z,5.25
2023-01-19T11:11:29.100Z,5.31
2023-01-19T11:12:29.075Z,5.45
2023-01-19T11:13:29.073Z,5.6
2023-01-19T11:14:29.075Z,4.77
2023-01-19T11:15:29.089Z,4.65
2023-01-19T11:16:29.187Z,4.61
2023-01-19T11:17:29.105Z,4.78
2023-01-19T11:18:29.086Z,4.96
2023-01-19T11:19:29.087Z,5.04
2023-01-19T11:20:29.072Z,5.04
2023-01-19T11:21:29.088Z,5.1
2023-01-19T11:22:29.083Z,5.34
2023-01-19T11:23:29.092Z,5.67
2023-01-19T11:24:29.082Z,5.84
2023-01-19T11:25:29.084Z,5.53
2023-01-19T11:26:29.082Z,5.1
2023-01-19T11:27:29.083Z,5.05
2023-01-19T11:28:29.080Z,5.7
2023-01-19T11:29:29.077Z,6.03
2023-01-19T11:30:29.057Z,6.03
2023-01-19T11:31:29.240Z,6.13
2023-01-19T11:32:29.091Z,6.11
2023-01-19T11:33:29.127Z,5.48
2023-01-19T11:34:29.079Z,5.28
2023-01-19T11:35:29.085Z,5.53
2023-01-19T11:36:29.156Z,5.47
2023-01-19T11:37:29.086Z,5.7
2023-01-19T11:38:29.075Z,5.9
2023-01-19T11:39:29.109Z,6.15
2023-01-19T11:40:29.066Z,6.06
2023-01-19T11:41:29.085Z,6.08
2023-01-19T11:42:29.083Z,5.75
2023-01-19T11:43:39.755Z,5.51
2023-01-19T11:44:29.086Z,5.65
2023-01-19T11:45:29.125Z,5.9
2023-01-19T11:46:29.088Z,6.19
2023-01-19T11:47:29.079Z,6.19
2023-01-19T11:48:29.094Z,5.71
2023-01-19T11:49:29.087Z,5.14
2023-01-19T11:50:29.062Z,5.14
2023-01-19T11:51:29.085Z,5.25
2023-01-19T11:52:29.142Z,4.68
2023-01-19T11:53:29.099Z,4.74
2023-01-19T11:54:29.060Z,5.03
2023-01-19T11:55:29.063Z,4.46
2023-01-19T11:56:29.069Z,4.61
2023-01-19T11:57:29.069Z,4.71
2023-01-19T11:58:29.077Z,5.35
2023-01-19T11:59:29.059Z,5.27
2023-01-19T12:00:29.112Z,5.35
2023-01-19T12:01:29.091Z,5.86
2023-01-19T12:02:29.156Z,6.26
2023-01-19T12:03:29.116Z,6.44
2023-01-19T12:04:29.072Z,5.87
2023-01-19T12:05:29.066Z,5.6
2023-01-19T12:06:29.080Z,5.59
2023-01-19T12:07:29.069Z,5.89
2023-01-19T12:08:29.071Z,5.89
2023-01-19T12:09:29.066Z,5.84
2023-01-19T12:10:29.123Z,6.46
2023-01-19T12:11:29.073Z,6.36
2023-01-19T12:12:29.061Z,6.52
2023-01-19T12:13:29.085Z,6.96
2023-01-19T12:14:29.062Z,6.81
2023-01-19T12:15:29.080Z,6.35
2023-01-19T12:16:29.197Z,5.4
2023-01-19T12:17:29.081Z,4.68
2023-01-19T12:18:29.073Z,4.48
2023-01-19T12:19:29.092Z,4.96
2023-01-19T12:20:29.064Z,5.92
2023-01-19T12:21:29.087Z,6.43
2023-01-19T12:22:29.137Z,6.4
2023-01-19T12:23:29.071Z,5.9
2023-01-19T12:24:29.205Z,5.22
2023-01-19T12:25:29.081Z,5.15
2023-01-19T12:26:29.104Z,5.69
2023-01-19T12:27:29.084Z,6.12
2023-01-19T12:28:29.193Z,6.23
2023-01-19T12:29:29.079Z,5.9
2023-01-19T12:30:29.143Z,5.49
2023-01-19T12:31:29.303Z,5.35
2023-01-19T12:32:29.081Z,5.43
2023-01-19T12:33:29.117Z,5.34
2023-01-19T12:34:29.169Z,5.2
2023-01-19T12:35:29.070Z,5.03
2023-01-19T12:36:29.071Z,4.85
2023-01-19T12:37:29.098Z,4.73
2023-01-19T12:38:29.075Z,4.63
2023-01-19T12:39:29.071Z,4.59
2023-01-19T12:40:29.067Z,4.59
2023-01-19T12:41:29.093Z,4.19
2023-01-19T12:42:29.081Z,3.88
2023-01-19T12:43:29.084Z,3.49
2023-01-19T12:44:29.070Z,3.4
2023-01-19T12:45:29.079Z,3.53
2023-01-19T12:46:29.146Z,3.61
2023-01-19T12:47:29.083Z,3.42
2023-01-19T12:48:29.088Z,3.19
2023-01-19T12:49:29.078Z,2.8
2023-01-19T12:50:29.067Z,2.63
2023-01-19T12:51:29.078Z,2.36
2023-01-19T12:52:29.102Z,2.17
2023-01-19T12:53:29.077Z,2.05
2023-01-19T12:54:29.078Z,2.04
2023-01-19T12:55:29.077Z,2.07
2023-01-19T12:56:29.066Z,2.32
2023-01-19T12:57:29.097Z,2.71
2023-01-19T12:58:29.074Z,3.07
2023-01-19T12:59:29.068Z,2.97
2023-01-19T13:00:29.074Z,2.57
2023-01-19T13:01:29.207Z,2.22
2023-01-19T13:02:29.125Z,2.04
2023-01-19T13:03:29.084Z,2.04
2023-01-19T13:04:29.055Z,2.11
2023-01-19T13:05:30.967Z,2.36
2023-01-19T13:06:29.057Z,2.69
2023-01-19T13:07:29.079Z,2.51
2023-01-19T13:08:29.053Z,2.51
2023-01-19T13:09:29.067Z,2.09
2023-01-19T13:10:29.057Z,2.31
2023-01-19T13:11:34.090Z,2.38
2023-01-19T13:12:29.090Z,2.11
2023-01-19T13:13:29.061Z,1.9
2023-01-19T13:14:29.057Z,1.88
2023-01-19T13:15:29.191Z,1.81
2023-01-19T13:16:29.056Z,1.81
2023-01-19T13:17:29.072Z,1.93
2023-01-19T13:18:29.081Z,2.17
2023-01-19T13:19:29.066Z,2.32
2023-01-19T13:20:29.063Z,2.16
2023-01-19T13:21:29.061Z,1.94
2023-01-19T13:22:29.083Z,1.85
2023-01-19T13:23:29.066Z,2.03
2023-01-19T13:24:29.061Z,2.35
2023-01-19T13:25:29.059Z,2.52
2023-01-19T13:26:29.068Z,2.72
2023-01-19T13:27:29.071Z,2.75
2023-01-19T13:28:29.059Z,2.72
2023-01-19T13:29:29.059Z,2.55
2023-01-19T13:30:29.068Z,2.54
2023-01-19T13:31:29.106Z,2.58
2023-01-19T13:32:29.081Z,2.59
2023-01-19T13:33:29.116Z,2.68
2023-01-19T13:34:29.062Z,2.68
2023-01-19T13:35:29.056Z,2.65
2023-01-19T13:36:29.166Z,2.53
2023-01-19T13:37:29.085Z,2.54
2023-01-19T13:38:29.088Z,2.6
2023-01-19T13:39:29.076Z,2.66
2023-01-19T13:40:29.068Z,2.6
2023-01-19T13:41:29.091Z,2.57
2023-01-19T13:42:29.092Z,2.46
2023-01-19T13:43:29.117Z,2.45
2023-01-19T13:44:29.075Z,2.48
2023-01-19T13:45:29.193Z,2.41
2023-01-19T13:46:29.117Z,2.28
2023-01-19T13:47:29.128Z,2.23
2023-01-19T13:48:29.085Z,2.21
2023-01-19T13:49:29.080Z,2.2
2023-01-19T13:50:29.062Z,2.2
2023-01-19T13:51:29.071Z,2.17
2023-01-19T13:52:29.094Z,2.13
2023-01-19T13:53:29.111Z,2.12
2023-01-19T13:54:29.111Z,2.1
2023-01-19T13:55:29.066Z,2.16
2023-01-19T13:56:29.088Z,2.16
2023-01-19T13:57:29.107Z,2.07
2023-01-19T13:58:29.075Z,2.02
2023-01-19T13:59:29.086Z,1.96
2023-01-19T14:00:29.069Z,1.96